Latest Weather Observations for Lucas Heights

IDN60901

Issued at 8:21 am EST Monday 27 April 2015 (issued every 10 minutes, with the page automatically refreshed every 10 minutes)

About weather observations | Map of Sydney area stations | Latest observations for Sydney area | Other Formats
Station Details ID: 066023 Name: LUCAS HEIGHTS AWS Lat: -34.05 Lon: 150.98 Height: 140.0 m
Data from the previous 72 hours. | See also: Recent months for locations in New South Wales
Date/Time
EST
Tmp

°C
App
Tmp
°C
Dew
Point
°C
Rel
Hum
%
Delta-T

°C
Wind Press
QNH
hPa
Press
MSL
hPa
Rain
since
9 am
mm
Dir
 
Spd
km/h
Gust
km/h
Spd
kts
Gust
kts
27/08:00am 12.4 7.8 8.3 76 2.0 SW 22 32 12 17 1018.6 - 0.5
27/07:45am 12.0 7.4 8.2 77 1.9 SW 22 30 12 16 1018.4 - 0.5
27/07:30am 11.6 7.4 8.2 79 1.7 SW 20 30 11 16 1018.3 - 0.5
27/07:15am 11.1 7.1 8.1 82 1.5 SW 19 24 10 13 1018.1 - 0.5
27/07:00am 11.0 6.3 7.9 81 1.5 SW 22 28 12 15 1017.8 - 0.5
27/06:45am 11.2 6.2 8.0 81 1.6 SW 24 30 13 16 1017.6 - 0.5
27/06:30am 11.1 5.7 8.1 82 1.5 SW 26 32 14 17 1017.4 - 0.5
27/06:15am 11.0 6.4 8.1 82 1.4 SW 22 26 12 14 1017.4 - 0.5
27/06:00am 11.1 6.5 8.1 82 1.5 SW 22 26 12 14 1017.2 - 0.5
27/05:45am 11.3 6.3 8.2 81 1.5 SW 24 28 13 15 1017.1 - 0.5
27/05:30am 11.3 6.3 8.2 81 1.5 SW 24 32 13 17 1017.0 - 0.5
27/05:15am 11.5 7.0 8.4 81 1.5 SW 22 28 12 15 1016.8 - 0.5
27/05:00am 11.5 7.0 8.4 81 1.5 SW 22 28 12 15 1016.8 - 0.5
27/04:45am 11.7 6.8 8.5 81 1.6 SW 24 32 13 17 1016.6 - 0.5
27/04:30am 11.8 7.0 8.7 81 1.6 SW 24 32 13 17 1016.4 - 0.5
27/04:15am 11.7 6.5 8.8 82 1.5 SW 26 30 14 16 1016.1 - 0.5
27/04:00am 11.6 7.1 8.7 82 1.4 SW 22 28 12 15 1015.9 - 0.5
27/03:45am 11.8 7.7 8.7 81 1.6 SW 20 26 11 14 1015.9 - 0.5
27/03:30am 12.1 8.6 8.9 81 1.6 SSW 17 22 9 12 1015.8 - 0.5
27/03:15am 12.5 9.5 9.1 80 1.7 SSW 15 20 8 11 1015.8 - 0.5
27/03:00am 12.7 9.0 9.4 80 1.7 SSW 19 26 10 14 1015.7 - 0.5
27/02:45am 12.6 9.6 9.2 80 1.7 SSW 15 19 8 10 1015.7 - 0.5
27/02:30am 13.0 10.4 9.3 78 1.9 SSW 13 19 7 10 1015.7 - 0.5
27/02:15am 13.4 9.8 9.7 78 1.9 SW 19 24 10 13 1015.7 - 0.5
27/02:00am 13.6 9.9 10.1 79 1.8 SSW 20 26 11 14 1015.6 - 0.5
27/01:45am 13.6 10.5 10.4 81 1.7 SSW 17 22 9 12 1015.5 - 0.5
27/01:30am 13.8 11.9 10.4 80 1.8 SSW 11 17 6 9 1015.5 - 0.5
27/01:15am 14.2 12.0 10.8 80 1.8 SSW 13 17 7 9 1015.4 - 0.5
27/01:00am 14.3 11.8 10.9 80 1.8 S 15 19 8 10 1015.5 - 0.5
27/12:45am 14.4 11.9 11.1 80 1.8 S 15 19 8 10 1015.4 - 0.5
27/12:30am 14.7 12.2 11.1 79 1.9 S 15 22 8 12 1015.5 - 0.5
27/12:15am 14.7 12.5 10.8 77 2.1 SSW 13 19 7 10 1015.4 - 0.5
27/12:00am 15.0 13.3 11.1 77 2.1 SSW 11 19 6 10 1015.3 - 0.5
 
Date/Time
EST
Tmp

°C
App
Tmp
°C
Dew
Point
°C
Rel
Hum
%
Delta-T

°C
Wind Press
QNH
hPa
Press
MSL
hPa
Rain
since
9 am
mm
Dir
 
Spd
km/h
Gust
km/h
Spd
kts
Gust
kts
26/11:45pm 15.1 12.6 11.2 77 2.1 SSW 15 22 8 12 1015.2 - 0.5
26/11:30pm 15.2 12.8 11.3 77 2.1 SSW 15 22 8 12 1015.1 - 0.5
26/11:15pm 15.1 12.7 11.3 78 2.0 SSW 15 20 8 11 1015.0 - 0.5
26/11:00pm 15.1 13.0 11.3 78 2.0 SSW 13 17 7 9 1015.0 - 0.5
26/10:45pm 15.1 13.4 11.2 77 2.1 SSW 11 17 6 9 1015.0 - 0.5
26/10:30pm 15.2 13.1 11.3 77 2.1 SSW 13 17 7 9 1015.1 - 0.5
26/10:15pm 15.2 12.8 11.4 78 2.1 SSW 15 22 8 12 1015.0 - 0.5
26/10:00pm 15.1 12.7 11.3 78 2.0 S 15 19 8 10 1015.0 - 0.5
26/09:45pm 15.2 12.4 11.3 77 2.1 SSW 17 22 9 12 1014.9 - 0.5
26/09:30pm 15.1 11.9 11.3 78 2.0 SSW 19 22 10 12 1014.9 - 0.5
26/09:15pm 15.0 11.8 11.4 79 1.9 SSW 19 24 10 13 1014.9 - 0.5
26/09:00pm 14.6 11.4 11.3 80 1.8 SSW 19 24 10 13 1014.9 - 0.5
26/08:45pm 14.3 11.1 11.1 81 1.7 S 19 24 10 13 1014.8 - 0.5
26/08:30pm 13.8 10.4 10.7 81 1.6 S 19 24 10 13 1014.8 - 0.5
26/08:15pm 13.7 11.4 10.3 80 1.8 S 13 19 7 10 1014.6 - 0.5
26/08:00pm 14.1 11.8 10.5 79 1.9 S 13 17 7 9 1014.5 - 0.5
26/07:45pm 14.4 11.8 10.6 78 2.0 S 15 20 8 11 1014.4 - 0.5
26/07:30pm 14.3 12.0 10.6 78 2.0 S 13 22 7 12 1014.3 - 0.5
26/07:15pm 13.9 11.2 10.2 78 1.9 S 15 22 8 12 1014.1 - 0.5
26/07:00pm 13.9 11.1 10.1 78 2.0 S 15 20 8 11 1013.9 - 0.5
26/06:45pm 14.0 11.2 10.0 77 2.1 S 15 22 8 12 1013.7 - 0.5
26/06:30pm 14.4 12.1 10.3 76 2.2 S 13 19 7 10 1013.5 - 0.5
26/06:15pm 14.2 11.0 10.0 76 2.2 S 17 22 9 12 1013.3 - 0.5
26/06:00pm 14.9 12.1 10.1 73 2.5 S 15 28 8 15 1013.0 - 0.5
26/05:45pm 15.2 12.1 10.2 72 2.6 S 17 28 9 15 1012.8 - 0.5
26/05:30pm 15.5 12.1 10.4 71 2.7 S 19 28 10 15 1012.5 - 0.5
26/05:15pm 15.8 12.8 10.5 71 2.8 SSW 17 22 9 12 1012.2 - 0.5
26/05:00pm 16.6 13.3 10.8 68 3.1 S 19 32 10 17 1011.7 - 0.5
26/04:45pm 17.1 13.9 11.2 68 3.2 SSW 19 33 10 18 1011.5 - 0.5
26/04:30pm 17.3 15.0 11.7 69 3.1 SSW 15 24 8 13 1011.3 - 0.5
26/04:15pm 17.5 15.7 12.1 70 3.0 SSW 13 24 7 13 1011.2 - 0.5
26/04:00pm 17.3 14.3 12.1 71 2.9 SSW 19 35 10 19 1011.1 - 0.5
26/03:45pm 17.1 15.0 12.4 74 2.6 SSW 15 24 8 13 1010.9 - 0.5
26/03:30pm 16.5 14.0 12.3 76 2.3 SSW 17 30 9 16 1010.9 - 0.5
26/03:15pm 16.0 12.7 11.7 75 2.3 SSW 20 32 11 17 1010.7 - 0.5
26/03:00pm 16.1 12.9 11.8 75 2.4 SSW 20 32 11 17 1010.4 - 0.5
26/02:45pm 16.1 12.2 12.0 76 2.3 SSW 24 35 13 19 1010.0 - 0.5
26/02:30pm 15.8 12.0 12.4 80 1.9 SSW 24 33 13 18 1009.9 - 0.5
26/02:15pm 15.2 12.1 12.3 83 1.6 SSW 20 30 11 16 1009.7 - 0.5
26/02:00pm 15.0 11.8 11.9 82 1.7 SSW 20 33 11 18 1009.4 - 0.5
26/01:45pm 15.6 11.6 11.7 77 2.1 SSW 24 39 13 21 1009.0 - 0.4
26/01:30pm 16.6 13.0 11.9 74 2.6 SSW 22 37 12 20 1008.9 - 0.0
26/01:15pm 16.5 12.1 11.7 73 2.6 S 26 43 14 23 1008.7 - 0.0
26/01:00pm 16.3 12.2 11.5 73 2.6 SSW 24 44 13 24 1008.5 - 0.0
26/12:45pm 16.5 12.0 11.4 72 2.8 SSW 26 43 14 23 1008.3 - 0.0
26/12:30pm 16.4 10.7 11.3 72 2.8 SSW 32 44 17 24 1008.1 - 0.0
26/12:15pm 16.3 10.4 11.2 72 2.8 SW 33 56 18 30 1007.9 - 0.0
26/12:00pm 16.0 10.7 11.3 73 2.5 SW 30 54 16 29 1007.8 - 0.0
26/11:45am 15.5 10.2 11.2 75 2.3 SW 30 46 16 25 1007.7 - 0.0
26/11:30am 15.1 10.5 11.2 77 2.1 SW 26 43 14 23 1007.8 - 0.0
26/11:15am 14.9 9.5 11.0 77 2.1 SW 30 44 16 24 1008.0 - 0.0
26/11:00am 15.1 10.9 11.2 77 2.1 SW 24 44 13 24 1008.1 - 0.0
26/10:45am 14.9 10.8 11.3 79 1.9 SW 24 37 13 20 1008.0 - 0.0
26/10:30am 14.5 10.7 11.0 79 1.9 SW 22 33 12 18 1007.8 - 0.0
26/10:15am 14.0 8.9 10.6 80 1.8 WSW 28 39 15 21 1007.6 - 0.0
26/10:00am 13.9 9.6 10.8 81 1.6 WSW 24 39 13 21 1007.7 - 0.0
26/09:45am 13.6 8.9 10.7 82 1.5 WSW 26 39 14 21 1007.7 - 0.0
26/09:30am 13.2 9.2 10.5 84 1.4 WSW 22 33 12 18 1007.8 - 0.0
26/09:15am 12.9 8.1 10.2 84 1.4 SW 26 37 14 20 1007.9 - 0.0
26/09:00am 13.0 8.9 10.2 83 1.5 SW 22 33 12 18 1008.0 - 4.9
26/08:45am 13.1 9.1 10.3 83 1.5 SW 22 32 12 17 1007.9 - 4.9
26/08:30am 12.8 8.3 10.2 84 1.4 WSW 24 33 13 18 1007.8 - 4.9
26/08:15am 12.5 8.4 10.1 85 1.2 WSW 22 32 12 17 1007.6 - 4.9
26/08:00am 12.3 8.7 10.0 86 1.2 WSW 19 24 10 13 1007.3 - 4.9
26/07:45am 11.9 7.7 9.9 87 1.0 WSW 22 30 12 16 1007.3 - 4.9
26/07:30am 11.5 7.3 9.6 88 1.0 SW 22 26 12 14 1007.2 - 4.9
26/07:15am 11.5 7.3 9.8 89 0.9 WSW 22 24 12 13 1007.0 - 4.9
26/07:00am 11.1 7.2 9.5 90 0.8 WSW 20 24 11 13 1006.9 - 4.9
26/06:45am 10.7 7.7 9.1 90 0.8 SW 15 19 8 10 1006.7 - 4.9
26/06:30am 10.8 7.8 9.3 90 0.8 WSW 15 20 8 11 1006.6 - 4.9
26/06:15am 10.6 7.1 8.9 89 0.8 WSW 17 22 9 12 1006.4 - 4.9
26/06:00am 10.9 7.9 9.2 89 0.9 WSW 15 22 8 12 1006.3 - 4.9
26/05:45am 10.8 7.0 9.2 90 0.8 WSW 19 22 10 12 1006.3 - 4.9
26/05:30am 10.8 6.8 9.1 89 0.9 WSW 20 26 11 14 1006.2 - 4.9
26/05:15am 11.0 8.0 9.3 89 0.9 WSW 15 22 8 12 1006.2 - 4.9
26/05:00am 11.2 7.9 9.5 89 0.9 WSW 17 24 9 13 1006.1 - 4.9
26/04:45am 11.3 7.4 9.6 89 0.9 WSW 20 26 11 14 1005.9 - 4.9
26/04:30am 11.4 6.5 9.9 90 0.8 WSW 26 33 14 18 1005.9 - 4.9
26/04:15am 11.6 8.1 10.2 91 0.7 WSW 19 26 10 14 1005.9 - 4.9
26/04:00am 11.8 8.4 10.5 92 0.7 W 19 24 10 13 1006.1 - 4.9
26/03:45am 12.1 9.6 10.9 92 0.6 W 15 22 8 12 1006.1 - 4.9
26/03:30am 11.9 9.0 10.9 94 0.5 SSW 17 30 9 16 1005.6 - 4.9
26/03:15am 11.3 6.9 10.3 94 0.5 SSW 24 33 13 18 1005.4 - 4.9
26/03:00am 11.3 8.6 10.3 94 0.5 SSW 15 22 8 12 1006.0 - 4.9
26/02:45am 11.5 8.8 10.4 93 0.6 SW 15 17 8 9 1006.5 - 4.9
26/02:30am 11.6 9.7 10.6 94 0.5 W 11 15 6 8 1007.0 - 4.7
26/02:15am 11.5 9.2 10.4 93 0.6 W 13 17 7 9 1007.5 - 4.7
26/02:00am 11.7 9.4 10.6 93 0.6 W 13 22 7 12 1007.7 - 4.7
26/01:45am 11.5 8.1 10.4 93 0.6 NW 19 32 10 17 1007.7 - 4.7
26/01:30am 11.4 7.9 10.1 92 0.7 NW 19 30 10 16 1007.3 - 4.7
26/01:15am 11.4 9.0 10.1 92 0.7 W 13 19 7 10 1007.0 - 4.7
26/01:00am 11.4 7.9 10.1 92 0.7 W 19 22 10 12 1006.9 - 4.7
26/12:45am 11.5 8.0 10.1 91 0.7 W 19 22 10 12 1007.2 - 4.7
26/12:30am 11.6 8.9 10.3 92 0.7 W 15 19 8 10 1007.4 - 4.7
26/12:15am 11.4 9.0 10.0 91 0.7 W 13 19 7 10 1007.4 - 4.7
26/12:00am 11.4 9.8 10.2 92 0.6 WSW 9 13 5 7 1007.1 - 4.7
 
Date/Time
EST
Tmp

°C
App
Tmp
°C
Dew
Point
°C
Rel
Hum
%
Delta-T

°C
Wind Press
QNH
hPa
Press
MSL
hPa
Rain
since
9 am
mm
Dir
 
Spd
km/h
Gust
km/h
Spd
kts
Gust
kts
25/11:45pm 10.8 9.0 9.5 92 0.7 S 9 13 5 7 1006.8 - 4.7
25/11:30pm 11.0 9.3 9.7 92 0.7 S 9 13 5 7 1006.9 - 4.7
25/11:15pm 11.3 8.9 10.0 92 0.7 SW 13 20 7 11 1006.9 - 4.7
25/11:00pm 11.8 9.5 10.4 91 0.7 WSW 13 17 7 9 1007.3 - 4.7
25/10:45pm 11.9 10.0 10.5 91 0.7 SSW 11 13 6 7 1007.4 - 4.7
25/10:30pm 12.0 10.9 10.5 90 0.8 SSE 7 9 4 5 1007.3 - 4.7
25/10:15pm 12.1 10.6 10.5 90 0.8 SSE 9 11 5 6 1007.3 - 4.7
25/10:00pm 12.2 10.3 10.5 89 0.9 S 11 15 6 8 1007.5 - 4.7
25/09:45pm 12.3 10.0 10.6 89 0.9 S 13 28 7 15 1007.5 - 4.7
25/09:30pm 12.2 8.8 10.4 89 0.9 S 19 26 10 14 1007.9 - 4.5
25/09:15pm 12.5 8.1 10.3 86 1.1 SSW 24 32 13 17 1008.1 - 3.8
25/09:00pm 13.1 9.2 10.9 86 1.2 SW 22 33 12 18 1008.3 - 3.1
25/08:45pm 13.1 9.2 10.9 86 1.2 SSW 22 37 12 20 1008.1 - 3.1
25/08:30pm 13.2 8.6 10.9 86 1.2 SW 26 37 14 20 1008.1 - 3.1
25/08:15pm 12.9 8.6 10.7 86 1.2 SSW 24 37 13 20 1007.5 - 3.1
25/08:00pm 13.0 8.9 10.2 83 1.5 S 22 33 12 18 1006.9 - 3.1
25/07:45pm 14.3 11.0 10.8 79 1.9 SW 19 32 10 17 1007.5 - 2.2
25/07:30pm 14.2 8.9 11.2 82 1.6 S 30 46 16 25 1006.7 - 1.4
25/07:15pm 14.3 10.3 11.8 85 1.4 SSW 24 41 13 22 1006.8 - 1.4
25/07:00pm 14.9 13.2 12.5 85 1.3 S 13 24 7 13 1006.8 - 1.4
25/06:45pm 15.1 12.7 12.7 85 1.3 S 17 26 9 14 1006.8 - 1.4
25/06:30pm 15.1 13.5 12.8 86 1.3 S 13 19 7 10 1006.5 - 1.3
25/06:15pm 15.4 13.5 12.9 85 1.4 S 15 24 8 13 1005.7 - 1.3
25/06:00pm 15.7 13.5 13.4 86 1.3 S 17 22 9 12 1005.3 - 1.3
25/05:45pm 15.4 12.8 13.2 87 1.2 S 19 24 10 13 1005.3 - 1.3
25/05:30pm 15.4 13.8 12.9 85 1.4 SSE 13 26 7 14 1005.7 - 1.3
25/05:15pm 15.9 14.5 13.3 84 1.5 NE 13 24 7 13 1005.2 - 1.1
25/05:00pm 15.8 13.2 13.2 84 1.5 ENE 19 33 10 18 1005.0 - 1.1
25/04:45pm 16.7 14.3 13.8 83 1.7 NNE 19 30 10 16 1005.6 - 1.1
25/04:30pm 16.6 14.1 13.5 82 1.8 ENE 19 28 10 15 1004.9 - 1.1
25/04:15pm 16.5 13.9 13.1 80 1.9 E 19 26 10 14 1004.5 - 0.9
25/04:00pm 17.1 14.4 12.8 76 2.4 ESE 19 28 10 15 1004.9 - 0.7
25/03:45pm 18.6 17.6 13.4 72 3.0 S 11 17 6 9 1005.5 - 0.0
25/03:30pm 19.2 18.0 12.9 67 3.6 SE 11 15 6 8 1005.1 - 0.0
25/03:15pm 19.8 18.9 12.5 62 4.1 ESE 9 17 5 9 1004.9 - 0.0
25/03:00pm 20.7 20.2 12.5 59 4.7 ESE 7 17 4 9 1004.8 - 0.0
25/02:45pm 21.4 21.2 11.7 54 5.4 NE 4 9 2 5 1004.7 - 0.0
25/02:30pm 21.9 21.2 11.3 51 5.9 - 6 9 3 5 1004.7 - 0.0
25/02:15pm 23.2 22.7 12.1 49 6.3 NNE 6 9 3 5 1004.8 - 0.0
25/02:00pm 23.1 23.4 12.3 50 6.2 NE 2 9 1 5 1004.9 - 0.0
25/01:45pm 22.8 22.4 12.4 52 5.9 NNE 6 9 3 5 1005.1 - 0.0
25/01:30pm 22.6 22.1 12.0 51 6.0 NW 6 13 3 7 1005.4 - 0.0
25/01:15pm 22.4 22.0 12.3 52 5.8 N 6 9 3 5 1005.6 - 0.0
25/01:00pm 22.3 21.9 12.4 53 5.6 NW 6 11 3 6 1005.8 - 0.0
25/12:45pm 22.2 21.9 12.7 55 5.4 WNW 6 9 3 5 1006.1 - 0.0
25/12:30pm 22.2 22.1 13.2 56 5.2 NW 6 13 3 7 1006.4 - 0.0
25/12:15pm 21.7 21.4 12.8 57 5.1 NW 6 15 3 8 1006.6 - 0.0
25/12:00pm 21.4 20.8 12.4 56 5.1 NW 7 13 4 7 1006.9 - 0.0
25/11:45am 21.1 20.4 12.1 56 5.1 NW 7 17 4 9 1007.2 - 0.0
25/11:30am 20.8 19.7 12.0 57 5.0 NW 9 13 5 7 1007.3 - 0.0
25/11:15am 20.6 19.9 12.1 58 4.8 WNW 7 13 4 7 1007.5 - 0.0
25/11:00am 20.2 19.1 12.0 59 4.6 W 9 17 5 9 1007.6 - 0.0
25/10:45am 20.0 18.7 12.5 62 4.2 WNW 11 17 6 9 1007.8 - 0.0
25/10:30am 19.7 18.8 12.7 64 4.0 WNW 9 17 5 9 1007.8 - 0.0
25/10:15am 19.4 19.3 13.3 68 3.5 WNW 6 13 3 7 1007.9 - 0.0
25/10:00am 18.5 17.7 12.9 70 3.2 W 9 15 5 8 1008.2 - 0.0
25/09:45am 18.0 17.2 13.0 72 2.8 W 9 13 5 7 1008.4 - 0.0
25/09:30am 17.6 16.7 12.7 73 2.7 W 9 15 5 8 1008.4 - 0.0
25/09:15am 17.2 16.0 12.7 75 2.5 W 11 17 6 9 1008.5 - 0.0
25/09:00am 17.1 15.9 12.9 76 2.4 W 11 17 6 9 1008.6 - 0.0
25/08:45am 17.1 16.1 13.3 78 2.1 W 11 15 6 8 1008.4 - 0.0
25/08:30am 16.7 16.2 14.9 89 1.0 W 11 15 6 8 1008.4 - 0.0
25/08:15am 14.3 14.0 13.2 93 0.6 WSW 7 9 4 5 1008.4 - 0.0
25/08:00am 13.0 11.5 12.0 94 0.5 SSW 11 15 6 8 1008.3 - 0.0
25/07:45am 12.1 10.0 11.2 94 0.5 S 13 15 7 8 1008.2 - 0.0
25/07:30am 11.5 9.2 10.6 94 0.5 S 13 15 7 8 1008.0 - 0.0
25/07:15am 10.7 8.6 9.8 94 0.5 S 11 13 6 7 1007.9 - 0.0
25/07:00am 10.6 8.5 9.6 93 0.5 SSW 11 13 6 7 1007.8 - 0.0
25/06:45am 10.6 8.8 9.5 93 0.6 SSW 9 13 5 7 1007.7 - 0.0
25/06:30am 10.4 8.6 9.3 93 0.6 SSW 9 11 5 6 1007.6 - 0.0
25/06:15am 10.4 8.6 9.3 93 0.6 WSW 9 11 5 6 1007.5 - 0.0
25/06:00am 10.5 8.7 9.4 93 0.6 WSW 9 13 5 7 1007.5 - 0.0
25/05:45am 10.8 8.7 9.7 93 0.6 W 11 13 6 7 1007.3 - 0.0
25/05:30am 11.5 9.5 10.3 92 0.6 W 11 13 6 7 1007.2 - 0.0
25/05:15am 11.5 10.0 10.4 93 0.6 W 9 13 5 7 1007.1 - 0.0
25/05:00am 11.4 9.8 10.2 92 0.6 W 9 9 5 5 1007.1 - 0.0
25/04:45am 11.7 10.6 10.5 92 0.6 W 7 9 4 5 1006.9 - 0.0
25/04:30am 11.7 10.6 10.5 92 0.6 W 7 9 4 5 1006.9 - 0.0
25/04:15am 11.7 10.5 10.4 92 0.7 W 7 11 4 6 1006.9 - 0.0
25/04:00am 11.7 9.8 10.4 92 0.7 W 11 13 6 7 1006.9 - 0.0
25/03:45am 11.5 9.9 10.1 91 0.7 W 9 13 5 7 1006.9 - 0.0
25/03:30am 11.7 9.7 10.2 90 0.8 W 11 13 6 7 1007.0 - 0.0
25/03:15am 12.3 10.8 10.7 90 0.8 W 9 13 5 7 1007.0 - 0.0
25/03:00am 12.9 10.9 11.4 91 0.8 WSW 13 17 7 9 1007.0 - 0.0
25/02:45am 12.2 9.9 10.6 90 0.8 W 13 15 7 8 1007.0 - 0.0
25/02:30am 12.5 11.1 10.8 89 0.9 WSW 9 13 5 7 1007.0 - 0.0
25/02:15am 12.9 11.9 11.1 89 1.0 W 7 9 4 5 1007.1 - 0.0
25/02:00am 13.1 12.2 11.3 89 1.0 W 7 13 4 7 1007.1 - 0.0
25/01:45am 13.0 12.2 11.1 88 1.0 WSW 6 9 3 5 1007.2 - 0.0
25/01:30am 13.3 13.0 11.4 88 1.0 WSW 4 9 2 5 1007.2 - 0.0
25/01:15am 13.2 13.2 11.1 87 1.1 WSW 2 4 1 2 1007.2 - 0.0
25/01:00am 13.4 13.0 11.1 86 1.2 SW 4 6 2 3 1007.3 - 0.0
25/12:45am 13.5 13.1 11.0 85 1.3 SW 4 7 2 4 1007.3 - 0.0
25/12:30am 13.7 13.2 10.9 83 1.5 SW 4 7 2 4 1007.3 - 0.0
25/12:15am 14.1 13.3 10.9 81 1.7 SW 6 9 3 5 1007.3 - 0.0
25/12:00am 14.8 13.9 11.4 80 1.8 SW 7 13 4 7 1007.2 - 0.0
 
Date/Time
EST
Tmp

°C
App
Tmp
°C
Dew
Point
°C
Rel
Hum
%
Delta-T

°C
Wind Press
QNH
hPa
Press
MSL
hPa
Rain
since
9 am
mm
Dir
 
Spd
km/h
Gust
km/h
Spd
kts
Gust
kts
24/11:45pm 15.6 14.7 11.4 76 2.3 WSW 7 11 4 6 1007.2 - 0.0
24/11:30pm 16.7 15.2 11.8 73 2.7 W 11 13 6 7 1007.1 - 0.0
24/11:15pm 17.8 15.9 11.9 68 3.3 W 13 17 7 9 1007.0 - 0.0
24/11:00pm 18.3 16.1 12.2 67 3.4 W 15 17 8 9 1007.0 - 0.0
24/10:45pm 18.3 15.8 12.4 68 3.3 W 17 19 9 10 1006.9 - 0.0
24/10:30pm 17.8 15.2 12.1 69 3.2 W 17 19 9 10 1006.9 - 0.0
24/10:15pm 18.1 15.2 12.3 69 3.2 WSW 19 22 10 12 1007.0 - 0.0
24/10:00pm 18.0 15.1 12.4 70 3.1 WSW 19 22 10 12 1007.0 - 0.0
24/09:45pm 17.9 14.9 12.4 70 3.1 WSW 20 22 11 12 1007.0 - 0.0
24/09:30pm 18.1 15.6 12.4 69 3.2 WSW 17 19 9 10 1007.0 - 0.0
24/09:15pm 18.3 15.9 12.6 69 3.2 WSW 17 19 9 10 1007.0 - 0.0
24/09:00pm 18.6 17.0 12.8 69 3.3 SW 13 17 7 9 1007.0 - 0.0
24/08:45pm 18.8 17.3 13.1 69 3.2 SW 13 17 7 9 1006.8 - 0.0
24/08:30pm 18.8 16.8 13.9 73 2.8 WSW 17 20 9 11 1006.8 - 0.0
24/08:15pm 17.8 15.7 14.6 81 1.9 SW 19 22 10 12 1006.7 - 0.0
24/08:00pm 16.9 15.7 14.1 83 1.6 SW 13 17 7 9 1006.6 - 0.0
24/07:45pm 17.4 16.3 14.3 82 1.8 SSW 13 15 7 8 1006.4 - 0.0
24/07:30pm 17.7 16.3 14.6 82 1.8 SW 15 17 8 9 1006.2 - 0.0
24/07:15pm 18.2 17.6 14.7 80 2.0 SW 11 15 6 8 1006.1 - 0.0
24/07:00pm 18.9 18.0 14.9 77 2.3 SW 13 17 7 9 1006.0 - 0.0
24/06:45pm 19.1 18.5 14.5 74 2.7 SSW 11 13 6 7 1005.9 - 0.0
24/06:30pm 19.8 19.5 14.4 71 3.2 SW 9 9 5 5 1005.7 - 0.0
24/06:15pm 20.5 20.2 14.5 68 3.5 SW 9 11 5 6 1005.6 - 0.0
24/06:00pm 20.7 20.5 14.8 69 3.5 SW 9 13 5 7 1005.4 - 0.0
24/05:45pm 20.7 20.2 14.9 69 3.4 SW 11 15 6 8 1005.2 - 0.0
24/05:30pm 20.8 19.9 14.9 69 3.5 SW 13 17 7 9 1005.0 - 0.0
24/05:15pm 21.2 20.6 14.5 65 3.9 WSW 11 15 6 8 1005.0 - 0.0
24/05:00pm 21.6 20.9 14.4 63 4.2 W 11 15 6 8 1004.9 - 0.0
24/04:45pm 22.5 22.2 14.5 60 4.7 W 9 13 5 7 1004.7 - 0.0
24/04:30pm 22.7 22.6 15.0 61 4.6 W 9 15 5 8 1004.6 - 0.0
24/04:15pm 23.0 22.0 14.6 59 5.0 W 13 19 7 10 1004.5 - 0.0
24/04:00pm 23.4 21.2 14.5 57 5.3 WNW 19 28 10 15 1004.4 - 0.0
24/03:45pm 24.1 22.5 14.9 56 5.5 NW 17 26 9 14 1004.3 - 0.0
24/03:30pm 24.3 23.2 15.3 57 5.4 NW 15 22 8 12 1004.3 - 0.0
24/03:15pm 24.3 22.9 15.6 58 5.3 NW 17 30 9 16 1004.2 - 0.0
24/03:00pm 24.3 23.9 16.2 60 5.0 NW 13 24 7 13 1004.2 - 0.0
24/02:45pm 24.1 24.2 16.4 62 4.7 NW 11 19 6 10 1004.4 - 0.0
24/02:30pm 23.8 24.0 16.7 64 4.4 NNW 11 20 6 11 1004.4 - 0.0
24/02:15pm 23.6 24.2 16.7 65 4.3 NW 9 15 5 8 1004.5 - 0.0
24/02:00pm 23.4 23.8 17.2 68 3.8 NNW 11 19 6 10 1004.6 - 0.0
24/01:45pm 22.6 22.9 16.9 70 3.5 NW 11 17 6 9 1004.9 - 0.0
24/01:30pm 22.6 23.3 17.1 71 3.4 NW 9 13 5 7 1005.0 - 0.0
24/01:15pm 22.3 23.0 17.1 72 3.2 NW 9 15 5 8 1005.0 - 0.0
24/01:00pm 21.7 22.6 16.5 72 3.2 NW 7 11 4 6 1005.1 - 0.0
24/12:45pm 21.7 22.6 16.7 73 3.1 NW 7 11 4 6 1005.2 - 0.0
24/12:30pm 21.6 22.4 16.3 72 3.2 NW 7 11 4 6 1005.5 - 0.0
24/12:15pm 21.9 22.9 16.8 73 3.1 NW 7 13 4 7 1005.8 - 0.0
24/12:00pm 21.4 22.3 16.6 74 2.9 NW 7 13 4 7 1006.0 - 0.0
24/11:45am 21.2 21.6 16.3 73 3.0 NW 9 17 5 9 1006.1 - 0.0
24/11:30am 21.4 21.7 16.9 75 2.8 NW 11 17 6 9 1006.4 - 0.0
24/11:15am 20.7 21.2 16.5 77 2.6 WNW 9 15 5 8 1006.6 - 0.0
24/11:00am 20.3 21.2 16.5 79 2.3 WNW 7 11 4 6 1006.7 - 0.0
24/10:45am 19.9 20.9 16.8 82 1.9 NW 7 13 4 7 1006.9 - 0.0
24/10:30am 19.4 20.6 16.8 85 1.6 WNW 6 9 3 5 1007.0 - 0.0
24/10:15am 18.6 19.4 16.3 86 1.4 WNW 7 13 4 7 1007.2 - 0.0
24/10:00am 18.1 18.4 16.0 87 1.3 NW 9 17 5 9 1007.5 - 0.0
24/09:45am 17.9 17.0 15.9 88 1.2 WNW 15 20 8 11 1007.7 - 0.0
24/09:30am 18.2 18.6 16.4 89 1.1 WNW 9 17 5 9 1007.5 - 0.0
24/09:15am 18.1 19.3 16.8 92 0.8 NW 6 11 3 6 1007.5 - 0.0
24/09:00am 17.8 18.8 16.8 94 0.6 WNW 7 13 4 7 1007.7 - 0.0
24/08:45am 17.3 18.2 16.5 95 0.5 W 7 13 4 7 1007.8 - 0.0
24/08:30am 17.2 17.7 16.6 96 0.4 W 9 15 5 8 1008.0 - 0.0

Latest Capital City Observations: Canberra | Sydney | Melbourne | Brisbane | Adelaide | Perth | Hobart | Darwin

Other Formats:

Comma delimited format used in spreadsheet applications
http://www.bom.gov.au/fwo/IDN60901/IDN60901.95757.axf

JavaScript Object Notation format (JSON) in row-major order
http://www.bom.gov.au/fwo/IDN60901/IDN60901.95757.json